Time;durP1;ratioP1;P1;durP2;ratioP2;P2;SDS_P1;SDS_P2;PMS_P1;PMS_P2;Temp;Humidity;BMP_temperature;BMP_pressure;BME280_temperature;BME280_humidity;BME280_pressure;Samples;Min_cycle;Max_cycle;Signal;HPM_P1;HPM_P2
2023/12/11 00:00:25;;;;;;;10.52;3.25;;;30.60;99.90;;;;;;5058398;28;20107;-69
2023/12/11 00:02:52;;;;;;;10.70;2.97;;;30.90;99.90;;;;;;5054525;28;20033;-67
2023/12/11 00:05:19;;;;;;;7.57;3.00;;;31.00;99.90;;;;;;5053070;28;20472;-68
2023/12/11 00:07:47;;;;;;;9.40;3.10;;;31.00;99.90;;;;;;5056082;28;20024;-68
2023/12/11 00:10:14;;;;;;;8.35;3.05;;;31.30;99.90;;;;;;5059977;28;20515;-68
2023/12/11 00:12:42;;;;;;;7.35;2.70;;;31.40;99.30;;;;;;5053479;28;20537;-68
2023/12/11 00:15:10;;;;;;;11.50;4.10;;;31.40;99.70;;;;;;5051921;28;20114;-68
2023/12/11 00:17:37;;;;;;;7.75;3.28;;;31.10;99.60;;;;;;5053494;28;20044;-71
2023/12/11 00:20:05;;;;;;;10.15;2.75;;;31.40;99.70;;;;;;5052702;28;20021;-70
2023/12/11 00:22:32;;;;;;;8.75;3.15;;;31.90;99.40;;;;;;5060488;28;20045;-68
2023/12/11 00:24:59;;;;;;;9.77;2.70;;;32.10;99.20;;;;;;5048687;28;20667;-70
2023/12/11 00:27:26;;;;;;;8.05;3.60;;;32.30;99.10;;;;;;5047625;28;20029;-68
2023/12/11 00:29:54;;;;;;;8.50;3.58;;;32.80;99.20;;;;;;5045499;28;20020;-66
2023/12/11 00:32:21;;;;;;;7.60;2.97;;;33.30;97.60;;;;;;5052519;28;20021;-68
2023/12/11 00:34:48;;;;;;;8.68;3.85;;;33.10;97.20;;;;;;5047275;28;20044;-65
2023/12/11 00:37:16;;;;;;;8.25;4.22;;;33.20;97.50;;;;;;5048774;28;20056;-71
2023/12/11 00:39:43;;;;;;;12.93;3.33;;;33.70;97.30;;;;;;5049330;28;20086;-71
2023/12/11 00:42:10;;;;;;;8.93;3.67;;;34.10;96.40;;;;;;5043637;28;20040;-66
2023/12/11 00:44:38;;;;;;;11.95;4.35;;;34.10;96.80;;;;;;5052237;28;20023;-70
2023/12/11 00:47:06;;;;;;;9.25;3.72;;;34.10;97.40;;;;;;5050772;28;20447;-70
2023/12/11 00:49:33;;;;;;;9.95;3.53;;;34.30;97.20;;;;;;5048142;28;20036;-71
2023/12/11 00:52:01;;;;;;;10.15;3.72;;;34.60;96.20;;;;;;5052276;28;20037;-70
2023/12/11 00:54:28;;;;;;;8.57;3.30;;;34.90;96.30;;;;;;5053568;28;20394;-69
2023/12/11 00:56:55;;;;;;;8.50;2.97;;;35.20;95.50;;;;;;5049551;28;20025;-69
2023/12/11 00:59:22;;;;;;;8.73;2.78;;;34.90;95.70;;;;;;5052459;28;20348;-69
2023/12/11 01:01:49;;;;;;;6.50;2.75;;;35.00;95.80;;;;;;5056141;28;20033;-69
2023/12/11 01:04:16;;;;;;;9.38;2.88;;;35.10;95.90;;;;;;5049204;28;20083;-65
2023/12/11 01:06:44;;;;;;;8.82;3.42;;;35.30;95.70;;;;;;5046059;28;20476;-70
2023/12/11 01:09:12;;;;;;;9.10;3.13;;;35.20;95.40;;;;;;5044917;28;20364;-67
2023/12/11 01:11:40;;;;;;;12.82;5.63;;;35.40;95.60;;;;;;5050548;28;20024;-67
2023/12/11 01:14:08;;;;;;;12.13;5.20;;;35.60;95.50;;;;;;5049305;28;20563;-67
2023/12/11 01:16:35;;;;;;;7.38;3.42;;;36.00;95.40;;;;;;5047877;28;20119;-69
2023/12/11 01:19:02;;;;;;;11.52;3.70;;;36.40;95.00;;;;;;5048018;28;20461;-70
2023/12/11 01:21:29;;;;;;;5.55;2.78;;;36.40;94.50;;;;;;5052567;28;20044;-70
2023/12/11 01:23:56;;;;;;;8.50;3.33;;;36.40;94.80;;;;;;5045084;28;20040;-71
2023/12/11 01:26:23;;;;;;;7.03;2.75;;;36.10;94.40;;;;;;5047121;28;20140;-70
2023/12/11 01:28:51;;;;;;;10.00;3.50;;;36.10;95.00;;;;;;5049491;28;20017;-70
2023/12/11 01:31:18;;;;;;;15.10;4.00;;;35.90;94.00;;;;;;4351665;28;9999930;-67
2023/12/11 01:33:45;;;;;;;11.57;3.63;;;35.90;93.70;;;;;;5055294;28;20031;-70
2023/12/11 01:36:12;;;;;;;11.00;3.63;;;35.70;94.30;;;;;;5050784;28;20033;-67
2023/12/11 01:38:39;;;;;;;7.47;3.72;;;35.20;94.50;;;;;;5047950;28;20051;-71
2023/12/11 01:41:07;;;;;;;9.75;4.03;;;34.80;95.00;;;;;;5051275;28;20025;-70
2023/12/11 01:43:34;;;;;;;9.98;3.55;;;34.70;94.80;;;;;;5049704;28;20104;-70
2023/12/11 01:46:08;;;;;;;9.63;4.07;;;34.60;95.10;;;;;;5048388;28;20090;-65
2023/12/11 01:48:35;;;;;;;7.97;3.70;;;35.40;95.20;;;;;;5054530;28;20510;-68
2023/12/11 01:51:04;;;;;;;10.20;3.90;;;35.80;94.20;;;;;;5050770;28;20484;-70
2023/12/11 01:53:31;;;;;;;11.20;3.67;;;35.80;93.80;;;;;;5050510;28;20021;-67
2023/12/11 01:55:58;;;;;;;8.57;3.35;;;36.10;94.40;;;;;;5047278;28;20025;-70
2023/12/11 01:58:27;;;;;;;6.05;3.33;;;36.70;93.00;;;;;;5052919;28;20447;-70
2023/12/11 02:00:54;;;;;;;8.60;4.00;;;37.20;93.30;;;;;;5050723;28;20039;-67
2023/12/11 02:03:22;;;;;;;8.98;3.45;;;37.70;93.20;;;;;;5046441;28;20014;-70
2023/12/11 02:05:50;;;;;;;9.43;3.85;;;37.80;92.80;;;;;;5044461;28;20028;-65
2023/12/11 02:08:17;;;;;;;8.25;3.45;;;37.90;92.30;;;;;;5051043;28;20099;-69
2023/12/11 02:10:44;;;;;;;12.10;4.45;;;37.80;91.90;;;;;;5054780;28;20045;-67
2023/12/11 02:13:12;;;;;;;10.52;4.55;;;37.40;91.70;;;;;;5048199;28;20636;-70
2023/12/11 02:15:44;;;;;;;10.85;4.63;;;37.00;91.70;;;;;;5047542;28;20021;-68
2023/12/11 02:18:13;;;;;;;10.50;4.38;;;36.90;92.10;;;;;;5049683;28;20060;-67
2023/12/11 02:20:44;;;;;;;12.35;4.45;;;37.10;92.10;;;;;;5046489;28;20035;-68
2023/12/11 02:23:16;;;;;;;7.50;3.88;;;37.60;91.70;;;;;;5045872;28;20032;-72
2023/12/11 02:25:45;;;;;;;;;;;37.70;91.30;;;;;;5047476;28;20088;-71
2023/12/11 02:28:12;;;;;;;6.43;3.80;;;38.00;91.30;;;;;;5052816;28;19995;-70
2023/12/11 02:30:53;;;;;;;9.45;4.38;;;38.10;91.50;;;;;;5057020;28;20031;-72
2023/12/11 02:33:20;;;;;;;11.50;4.28;;;38.30;91.50;;;;;;5040104;28;20099;-66
2023/12/11 02:35:47;;;;;;;11.10;3.97;;;38.30;92.20;;;;;;5045700;28;20102;-66
2023/12/11 02:38:14;;;;;;;8.20;4.07;;;38.20;92.70;;;;;;5047894;28;20543;-71
2023/12/11 02:40:41;;;;;;;11.60;4.32;;;37.80;93.00;;;;;;5047990;28;20591;-71
2023/12/11 02:43:08;;;;;;;9.48;3.95;;;38.10;92.30;;;;;;5046979;28;20021;-66
2023/12/11 02:45:35;;;;;;;9.80;4.10;;;37.90;92.70;;;;;;5046364;28;20032;-68
2023/12/11 02:48:03;;;;;;;13.05;4.85;;;38.00;92.50;;;;;;5046051;28;20108;-68
2023/12/11 02:50:33;;;;;;;12.35;4.03;;;37.70;93.20;;;;;;5049419;28;20017;-67
2023/12/11 02:53:02;;;;;;;10.95;3.90;;;37.20;93.60;;;;;;5047776;28;20875;-73
2023/12/11 02:55:29;;;;;;;11.85;3.97;;;37.00;94.00;;;;;;5045214;28;20072;-67
2023/12/11 02:58:01;;;;;;;13.30;3.80;;;36.80;93.70;;;;;;5052434;28;20033;-67
2023/12/11 03:00:29;;;;;;;9.70;3.72;;;37.20;93.50;;;;;;5049278;28;20052;-72
2023/12/11 03:02:57;;;;;;;14.35;4.35;;;37.70;93.50;;;;;;5049631;28;20048;-72
2023/12/11 03:05:24;;;;;;;8.30;3.20;;;37.50;93.20;;;;;;5048132;28;20078;-72
2023/12/11 03:07:51;;;;;;;12.60;4.10;;;37.50;93.50;;;;;;5051186;28;20033;-69
2023/12/11 03:10:19;;;;;;;10.07;3.70;;;37.60;93.40;;;;;;5047677;28;20524;-72
2023/12/11 03:12:46;;;;;;;11.77;4.00;;;37.20;93.50;;;;;;5044578;28;20599;-68
2023/12/11 03:15:13;;;;;;;12.95;3.38;;;36.90;93.80;;;;;;5049735;28;20380;-68
2023/12/11 03:17:40;;;;;;;12.07;3.72;;;36.90;94.10;;;;;;5054738;28;20036;-67
2023/12/11 03:20:11;;;;;;;9.98;3.53;;;36.70;94.30;;;;;;5048460;28;20509;-67
2023/12/11 03:22:38;;;;;;;11.15;4.00;;;36.90;94.30;;;;;;5048954;28;20499;-73
2023/12/11 03:25:06;;;;;;;15.05;3.85;;;37.00;94.10;;;;;;5046798;28;20045;-67
2023/12/11 03:27:33;;;;;;;10.50;3.65;;;37.40;93.50;;;;;;5045640;28;20028;-67
2023/12/11 03:30:00;;;;;;;8.73;3.08;;;37.40;93.50;;;;;;5048526;28;20029;-70
2023/12/11 03:32:27;;;;;;;12.02;3.83;;;36.80;93.90;;;;;;5049951;28;20013;-71
2023/12/11 03:34:55;;;;;;;9.68;3.92;;;36.40;94.60;;;;;;5047641;28;20031;-71
2023/12/11 03:37:22;;;;;;;7.18;3.72;;;36.10;94.70;;;;;;5049051;28;20021;-67
2023/12/11 03:39:49;;;;;;;12.45;4.50;;;35.90;94.90;;;;;;5042650;28;20021;-69
2023/12/11 03:42:16;;;;;;;11.25;4.03;;;35.90;95.00;;;;;;5049060;28;20028;-68
2023/12/11 03:44:43;;;;;;;12.10;3.38;;;35.70;95.20;;;;;;5046350;28;20025;-69
2023/12/11 03:47:10;;;;;;;11.50;3.55;;;35.90;94.90;;;;;;5057232;28;20017;-72
2023/12/11 03:49:38;;;;;;;13.02;3.53;;;35.60;95.70;;;;;;5049227;28;20024;-71
2023/12/11 03:52:05;;;;;;;10.77;3.78;;;35.60;96.00;;;;;;5043648;28;20033;-69
2023/12/11 03:54:32;;;;;;;11.38;3.85;;;36.10;94.90;;;;;;5051235;28;20048;-69
2023/12/11 03:56:59;;;;;;;7.97;3.20;;;35.40;95.30;;;;;;5056116;28;20763;-66
2023/12/11 03:59:26;;;;;;;13.77;4.50;;;35.20;95.70;;;;;;5045968;28;20387;-70
2023/12/11 04:01:53;;;;;;;13.27;4.22;;;34.90;96.00;;;;;;5053101;28;20044;-70
2023/12/11 04:04:21;;;;;;;12.23;4.28;;;35.00;96.10;;;;;;5052001;28;20044;-71
2023/12/11 04:06:48;;;;;;;6.13;2.92;;;35.40;95.70;;;;;;5046725;28;20033;-69
2023/12/11 04:09:15;;;;;;;9.10;4.03;;;35.50;95.90;;;;;;5045828;28;20009;-69
2023/12/11 04:11:44;;;;;;;9.25;3.70;;;35.80;95.70;;;;;;5041019;28;20415;-68
2023/12/11 04:14:11;;;;;;;10.65;3.97;;;35.90;95.30;;;;;;5046520;28;20025;-67
2023/12/11 04:16:44;;;;;;;14.23;3.63;;;36.40;95.40;;;;;;5049556;28;20087;-72
2023/12/11 04:19:14;;;;;;;9.48;3.80;;;36.60;94.90;;;;;;5055142;28;20025;-67
2023/12/11 04:21:41;;;;;;;11.05;3.97;;;36.20;95.40;;;;;;5042800;28;20471;-67
2023/12/11 04:24:08;;;;;;;10.70;3.75;;;36.00;94.80;;;;;;5051429;28;20032;-66
2023/12/11 04:26:35;;;;;;;12.45;3.90;;;35.90;95.10;;;;;;5052532;28;20395;-73
2023/12/11 04:29:03;;;;;;;10.77;3.92;;;35.80;95.00;;;;;;5047762;28;20408;-72
2023/12/11 04:31:30;;;;;;;13.52;3.60;;;35.10;95.50;;;;;;5046742;28;20037;-67
2023/12/11 04:33:57;;;;;;;11.60;3.67;;;35.40;95.70;;;;;;5044523;28;20078;-71
2023/12/11 04:36:24;;;;;;;11.88;5.35;;;35.20;95.40;;;;;;5045615;28;20028;-65
2023/12/11 04:38:52;;;;;;;11.38;3.53;;;34.90;96.30;;;;;;5049847;28;20408;-75
2023/12/11 04:41:19;;;;;;;12.43;3.85;;;35.50;95.30;;;;;;5043331;28;20024;-69
2023/12/11 04:43:46;;;;;;;12.00;3.58;;;35.40;95.20;;;;;;5033246;28;20029;-74
2023/12/11 04:46:13;;;;;;;11.93;3.72;;;34.90;95.90;;;;;;5035437;28;20040;-73
2023/12/11 04:48:40;;;;;;;10.30;3.45;;;35.40;95.80;;;;;;5036948;28;20025;-72
2023/12/11 04:51:07;;;;;;;11.88;4.10;;;35.90;95.60;;;;;;5037494;28;20074;-69
2023/12/11 04:53:34;;;;;;;9.57;4.28;;;35.70;95.10;;;;;;5038690;28;20061;-72
2023/12/11 04:56:06;;;;;;;12.52;7.40;;;35.30;95.40;;;;;;5033479;28;20026;-71
2023/12/11 04:58:34;;;;;;;8.45;3.78;;;35.50;95.00;;;;;;5044096;28;20094;-73
2023/12/11 05:01:01;;;;;;;11.90;4.03;;;35.60;94.90;;;;;;5036864;28;20033;-74
2023/12/11 05:03:28;;;;;;;8.05;2.95;;;35.40;95.70;;;;;;5039688;28;20037;-71
2023/12/11 05:05:55;;;;;;;11.27;3.85;;;35.30;95.60;;;;;;5037575;28;20029;-69
2023/12/11 05:08:23;;;;;;;7.45;3.13;;;35.60;95.40;;;;;;5035397;28;20462;-71
2023/12/11 05:10:50;;;;;;;8.68;3.83;;;35.90;94.80;;;;;;5039354;28;20025;-71
2023/12/11 05:13:17;;;;;;;12.65;3.30;;;35.80;94.80;;;;;;5036463;28;20476;-69
2023/12/11 05:15:44;;;;;;;11.77;3.40;;;35.70;95.00;;;;;;5040303;28;20083;-72
2023/12/11 05:18:11;;;;;;;8.30;3.42;;;35.30;95.30;;;;;;5038697;28;20067;-71
2023/12/11 05:20:38;;;;;;;8.45;3.47;;;35.20;95.40;;;;;;5034474;28;20447;-70
2023/12/11 05:23:05;;;;;;;9.68;3.50;;;35.50;95.10;;;;;;5039002;28;20025;-72
2023/12/11 05:25:33;;;;;;;9.32;3.00;;;35.20;95.30;;;;;;5032569;28;20045;-69
2023/12/11 05:28:00;;;;;;;10.75;3.33;;;35.70;94.90;;;;;;5034525;28;20293;-75
2023/12/11 05:30:27;;;;;;;8.15;3.53;;;35.50;95.00;;;;;;5035309;28;20054;-71
2023/12/11 05:32:54;;;;;;;7.93;3.58;;;35.20;95.20;;;;;;5039135;28;20026;-70
2023/12/11 05:35:21;;;;;;;9.25;3.85;;;35.00;95.30;;;;;;5038714;28;20055;-70
2023/12/11 05:37:48;;;;;;;7.63;2.67;;;35.10;94.90;;;;;;5042048;28;20045;-72
2023/12/11 05:40:15;;;;;;;10.18;2.88;;;34.80;95.00;;;;;;5041446;28;20040;-71
2023/12/11 05:42:42;;;;;;;12.48;3.83;;;35.00;94.90;;;;;;5042342;28;20584;-70
2023/12/11 05:45:10;;;;;;;6.60;3.15;;;34.70;95.10;;;;;;5042764;28;20021;-72
2023/12/11 05:47:37;;;;;;;8.80;3.05;;;33.90;96.30;;;;;;5044351;28;20127;-74
2023/12/11 05:50:05;;;;;;;8.50;3.38;;;33.80;96.10;;;;;;5049599;28;20475;-68
2023/12/11 05:52:32;;;;;;;11.75;3.50;;;33.70;96.00;;;;;;5039856;28;20029;-70
2023/12/11 05:54:59;;;;;;;9.43;3.03;;;33.70;96.10;;;;;;5043883;28;20499;-71
2023/12/11 05:57:26;;;;;;;6.22;2.50;;;33.90;96.00;;;;;;5042574;28;20326;-69
2023/12/11 05:59:53;;;;;;;8.98;2.75;;;34.10;95.50;;;;;;5045304;28;20036;-73
2023/12/11 06:02:20;;;;;;;20.52;10.90;;;33.80;95.90;;;;;;5045349;28;20025;-73
2023/12/11 06:04:47;;;;;;;12.57;4.80;;;34.10;95.50;;;;;;5044982;28;20028;-68
2023/12/11 06:07:14;;;;;;;5.72;2.20;;;34.50;95.40;;;;;;5050711;28;20025;-70
2023/12/11 06:09:42;;;;;;;12.70;3.25;;;35.40;94.50;;;;;;5045380;28;20156;-72
2023/12/11 06:12:09;;;;;;;9.00;3.22;;;34.90;94.30;;;;;;5044166;28;20375;-71
2023/12/11 06:14:40;;;;;;;5.75;2.60;;;33.80;95.00;;;;;;5043756;28;20464;-72
2023/12/11 06:17:08;;;;;;;5.93;2.45;;;33.40;95.90;;;;;;5051958;28;20021;-71
2023/12/11 06:19:35;;;;;;;8.63;3.15;;;33.60;95.70;;;;;;5049255;28;20031;-71
2023/12/11 06:22:02;;;;;;;9.27;2.65;;;32.90;96.10;;;;;;5042782;28;20036;-73
2023/12/11 06:24:29;;;;;;;9.88;3.70;;;32.50;96.60;;;;;;5050151;28;20491;-73
2023/12/11 06:26:56;;;;;;;10.15;3.08;;;32.00;97.20;;;;;;5045622;28;20055;-67
2023/12/11 06:29:23;;;;;;;9.68;3.33;;;31.90;97.40;;;;;;5051578;28;20029;-68
2023/12/11 06:31:50;;;;;;;8.70;3.05;;;31.90;97.40;;;;;;5046435;28;20480;-67
2023/12/11 06:34:18;;;;;;;8.05;2.92;;;32.70;96.70;;;;;;5044121;28;20032;-67
2023/12/11 06:36:45;;;;;;;8.13;2.95;;;33.30;96.60;;;;;;5044088;28;20029;-72
2023/12/11 06:39:12;;;;;;;10.60;2.88;;;33.60;95.80;;;;;;5047268;28;20033;-71
2023/12/11 06:41:39;;;;;;;6.72;3.03;;;34.20;95.10;;;;;;5044261;28;20417;-69
2023/12/11 06:44:06;;;;;;;7.75;2.75;;;34.30;94.80;;;;;;5044772;28;20029;-70
2023/12/11 06:46:33;;;;;;;6.20;3.17;;;33.80;95.00;;;;;;5038882;28;20114;-71
2023/12/11 06:49:00;;;;;;;9.50;2.75;;;34.00;95.20;;;;;;5050717;28;20182;-68
2023/12/11 06:51:29;;;;;;;7.10;2.63;;;34.70;94.30;;;;;;5047437;28;20102;-69
2023/12/11 06:53:59;;;;;;;12.10;3.33;;;34.70;94.30;;;;;;5043201;28;20025;-72
2023/12/11 06:56:31;;;;;;;8.90;3.63;;;34.30;94.90;;;;;;5045775;28;20554;-70
2023/12/11 06:58:59;;;;;;;8.75;2.38;;;33.80;95.10;;;;;;5049788;28;20033;-71
2023/12/11 07:01:36;;;;;;;9.48;2.95;;;34.10;95.50;;;;;;5049423;28;20102;-68
2023/12/11 07:04:03;;;;;;;8.63;2.90;;;34.80;94.50;;;;;;5046549;28;20032;-71
2023/12/11 07:06:30;;;;;;;9.85;3.00;;;34.70;94.80;;;;;;5052838;28;20751;-71
2023/12/11 07:08:58;;;;;;;7.93;2.88;;;33.90;94.90;;;;;;5052011;28;20087;-71
2023/12/11 07:11:25;;;;;;;6.93;2.60;;;33.20;95.70;;;;;;5050037;28;20017;-71
2023/12/11 07:13:53;;;;;;;7.32;2.28;;;33.40;95.90;;;;;;5046048;28;20051;-71
2023/12/11 07:16:20;;;;;;;8.95;2.85;;;34.30;94.90;;;;;;5047878;28;20017;-71
2023/12/11 07:18:47;;;;;;;6.03;2.53;;;34.40;94.90;;;;;;5051557;28;20039;-69
2023/12/11 07:21:15;;;;;;;8.85;2.80;;;33.60;95.40;;;;;;5048052;28;20079;-69
2023/12/11 07:23:42;;;;;;;8.13;2.75;;;32.50;96.40;;;;;;5047233;28;20486;-71
2023/12/11 07:26:10;;;;;;;8.85;2.97;;;31.90;97.50;;;;;;5050759;28;20049;-68
2023/12/11 07:28:38;;;;;;;8.27;2.63;;;31.90;97.20;;;;;;5042259;28;20025;-71
2023/12/11 07:31:06;;;;;;;7.80;2.58;;;31.50;97.70;;;;;;5051765;28;20384;-72
2023/12/11 07:33:33;;;;;;;8.57;2.58;;;31.50;97.50;;;;;;5045515;28;20491;-71
2023/12/11 07:36:01;;;;;;;9.07;2.47;;;31.10;97.90;;;;;;5046062;28;20028;-67
2023/12/11 07:38:28;;;;;;;7.10;2.47;;;31.10;97.70;;;;;;5048237;28;20024;-73
2023/12/11 07:40:57;;;;;;;8.63;2.53;;;31.20;97.70;;;;;;5049269;28;20108;-72
2023/12/11 07:43:24;;;;;;;7.47;2.55;;;31.40;97.50;;;;;;5048636;28;20021;-71
2023/12/11 07:45:51;;;;;;;7.55;2.42;;;32.20;96.90;;;;;;5039231;28;20033;-68
2023/12/11 07:48:19;;;;;;;10.35;2.55;;;31.90;96.40;;;;;;5049773;28;20075;-71
2023/12/11 07:50:46;;;;;;;9.70;2.33;;;31.60;96.60;;;;;;5048779;28;20028;-71
2023/12/11 07:53:13;;;;;;;6.65;2.03;;;30.90;97.30;;;;;;5047020;28;20064;-67
2023/12/11 07:55:40;;;;;;;10.98;2.35;;;30.20;98.30;;;;;;5049325;28;20055;-72
2023/12/11 07:58:07;;;;;;;6.45;1.95;;;30.00;98.20;;;;;;5052347;28;20356;-71
2023/12/11 08:00:35;;;;;;;5.72;1.90;;;29.90;98.80;;;;;;5051447;28;20033;-72
2023/12/11 08:03:04;;;;;;;5.05;2.28;;;29.90;98.90;;;;;;5045198;28;20534;-72
2023/12/11 08:05:31;;;;;;;5.88;2.03;;;29.80;99.20;;;;;;5050397;28;20020;-72
2023/12/11 08:07:58;;;;;;;8.98;2.60;;;29.90;99.20;;;;;;5051639;28;20025;-73
2023/12/11 08:10:25;;;;;;;9.68;2.25;;;30.20;98.50;;;;;;5046159;28;20055;-70
2023/12/11 08:12:52;;;;;;;7.65;2.65;;;29.90;99.00;;;;;;5049538;28;20235;-67
2023/12/11 08:15:20;;;;;;;9.00;2.10;;;28.50;99.90;;;;;;5047353;28;20036;-68
2023/12/11 08:17:47;;;;;;;7.47;2.70;;;28.00;99.90;;;;;;5050957;28;20132;-68
2023/12/11 08:20:16;;;;;;;5.47;2.47;;;27.60;99.90;;;;;;5050493;28;20103;-67
2023/12/11 08:22:44;;;;;;;9.38;3.00;;;27.30;99.90;;;;;;5045820;28;20432;-72
2023/12/11 08:25:13;;;;;;;10.55;2.83;;;27.00;99.90;;;;;;5051933;28;20052;-72
2023/12/11 08:27:41;;;;;;;9.32;2.42;;;26.90;99.90;;;;;;5049915;28;20016;-73
2023/12/11 08:30:10;;;;;;;6.72;2.67;;;26.50;99.90;;;;;;5050455;28;20017;-67
2023/12/11 08:32:38;;;;;;;7.28;2.28;;;26.30;99.90;;;;;;5046208;28;20540;-74
2023/12/11 08:35:07;;;;;;;11.55;3.58;;;26.20;99.90;;;;;;5046314;28;20079;-68
2023/12/11 08:37:34;;;;;;;6.40;2.58;;;26.00;99.90;;;;;;5046081;28;20475;-75
2023/12/11 08:40:03;;;;;;;7.65;3.15;;;25.80;99.90;;;;;;5054842;28;20017;-74
2023/12/11 08:42:35;;;;;;;9.85;3.03;;;25.70;99.90;;;;;;5047306;28;20105;-68
2023/12/11 08:45:03;;;;;;;9.88;2.97;;;25.80;99.90;;;;;;5045907;28;20524;-73
2023/12/11 08:47:30;;;;;;;8.60;3.97;;;25.70;99.90;;;;;;5037680;28;20029;-72
2023/12/11 08:49:57;;;;;;;14.48;3.80;;;25.50;99.90;;;;;;5042239;28;20336;-68
2023/12/11 08:52:25;;;;;;;8.65;3.97;;;25.50;99.90;;;;;;5042833;28;20051;-69
2023/12/11 08:54:52;;;;;;;10.55;4.88;;;25.30;99.90;;;;;;5044067;28;20116;-71
2023/12/11 08:57:19;;;;;;;8.43;5.45;;;25.20;99.90;;;;;;5048349;28;20029;-77
2023/12/11 08:59:47;;;;;;;10.93;5.38;;;25.10;99.90;;;;;;5036716;28;20025;-69
2023/12/11 09:02:14;;;;;;;11.30;5.50;;;25.10;99.90;;;;;;5033203;28;20107;-68
2023/12/11 09:04:41;;;;;;;11.50;6.40;;;25.20;99.90;;;;;;5033709;28;20048;-74
2023/12/11 09:07:09;;;;;;;10.18;5.78;;;25.30;99.90;;;;;;5030499;28;20400;-67
2023/12/11 09:09:38;;;;;;;11.25;5.85;;;25.20;99.90;;;;;;5033093;28;20082;-72
2023/12/11 09:12:06;;;;;;;11.90;5.88;;;25.20;99.90;;;;;;5037803;28;20028;-71
2023/12/11 09:14:33;;;;;;;10.70;6.30;;;25.00;99.90;;;;;;5041627;28;20404;-65
2023/12/11 09:17:01;;;;;;;11.10;5.75;;;24.90;99.90;;;;;;5037923;28;21551;-66
2023/12/11 09:19:28;;;;;;;11.68;4.82;;;24.90;99.90;;;;;;5037322;28;20024;-67
2023/12/11 09:21:56;;;;;;;9.57;4.20;;;24.80;99.90;;;;;;5039695;28;20136;-70
2023/12/11 09:24:23;;;;;;;10.65;4.22;;;24.70;99.90;;;;;;5035270;28;20247;-68
2023/12/11 09:26:50;;;;;;;12.50;4.80;;;24.60;99.90;;;;;;5035627;28;20792;-70
2023/12/11 09:29:17;;;;;;;10.50;4.43;;;24.50;99.90;;;;;;5036233;28;20032;-70
2023/12/11 09:31:45;;;;;;;12.07;4.43;;;24.40;99.90;;;;;;5032837;28;20100;-74
2023/12/11 09:34:12;;;;;;;13.80;4.75;;;24.30;99.90;;;;;;5026596;23;20624;-69
2023/12/11 09:36:39;;;;;;;10.25;4.20;;;24.20;99.90;;;;;;5016846;28;20056;-70
2023/12/11 09:39:07;;;;;;;11.25;4.15;;;24.20;99.90;;;;;;5016317;28;20625;-71
2023/12/11 09:41:35;;;;;;;9.63;4.15;;;24.10;99.90;;;;;;5008976;28;20206;-78
2023/12/11 09:44:03;;;;;;;8.32;3.53;;;24.10;99.90;;;;;;5012187;28;20510;-72
2023/12/11 09:46:40;;;;;;;12.45;4.70;;;24.10;99.90;;;;;;5013000;28;20034;-70
2023/12/11 09:49:08;;;;;;;10.88;4.18;;;24.10;99.90;;;;;;5015102;28;20400;-73
2023/12/11 09:51:36;;;;;;;10.77;3.53;;;24.00;99.90;;;;;;5014350;28;20056;-73
2023/12/11 09:54:03;;;;;;;9.43;3.80;;;24.10;99.90;;;;;;5013732;28;20435;-70
2023/12/11 09:56:32;;;;;;;7.18;3.72;;;24.10;99.90;;;;;;5011001;28;20152;-70
2023/12/11 09:58:59;;;;;;;7.97;3.90;;;24.10;99.90;;;;;;5013360;28;20036;-67
2023/12/11 10:01:26;;;;;;;7.30;3.30;;;24.10;99.90;;;;;;5011740;28;20030;-67
2023/12/11 10:03:53;;;;;;;9.38;3.25;;;24.20;99.90;;;;;;5015229;28;20040;-67
2023/12/11 10:06:21;;;;;;;14.10;4.03;;;24.30;99.90;;;;;;5013334;28;20115;-66
2023/12/11 10:08:52;;;;;;;11.63;3.78;;;24.30;99.90;;;;;;5013107;28;20366;-66
2023/12/11 10:11:22;;;;;;;9.98;3.03;;;24.20;99.90;;;;;;5011338;28;20034;-66
2023/12/11 10:13:50;;;;;;;9.82;3.08;;;24.20;99.90;;;;;;5014894;28;20187;-67
2023/12/11 10:16:31;;;;;;;8.82;3.33;;;24.30;99.90;;;;;;5012667;28;20053;-68
2023/12/11 10:19:00;;;;;;;10.55;3.72;;;24.30;99.90;;;;;;5014404;28;20114;-66
2023/12/11 10:21:39;;;;;;;11.60;3.15;;;24.40;99.90;;;;;;5010835;28;20083;-66
2023/12/11 10:24:09;;;;;;;10.27;3.55;;;24.40;99.90;;;;;;5014587;28;20116;-70
2023/12/11 10:26:45;;;;;;;9.73;3.13;;;24.40;99.90;;;;;;5014621;28;20450;-69
2023/12/11 10:29:22;;;;;;;11.13;2.67;;;24.40;99.90;;;;;;5015177;28;20118;-66
2023/12/11 10:31:51;;;;;;;7.30;2.90;;;24.40;99.90;;;;;;5011370;28;20026;-73
2023/12/11 10:34:18;;;;;;;10.15;4.03;;;24.50;99.90;;;;;;5014056;28;21304;-70
2023/12/11 10:36:50;;;;;;;10.20;3.20;;;24.70;99.90;;;;;;5014432;28;20107;-70
2023/12/11 10:39:21;;;;;;;11.75;3.70;;;24.70;99.90;;;;;;5013070;28;20029;-71
2023/12/11 10:41:48;;;;;;;10.68;3.70;;;24.70;99.90;;;;;;5012083;28;20033;-73
2023/12/11 10:44:26;;;;;;;12.00;3.35;;;24.70;99.90;;;;;;5013125;28;20430;-74
2023/12/11 10:46:55;;;;;;;8.38;3.70;;;24.60;99.90;;;;;;5012983;28;20396;-71
2023/12/11 10:49:23;;;;;;;8.38;3.05;;;24.60;99.90;;;;;;5010481;28;20424;-71
2023/12/11 10:51:51;;;;;;;10.52;5.97;;;24.70;99.90;;;;;;5011373;28;20041;-69
2023/12/11 10:54:20;;;;;;;13.80;3.83;;;24.60;99.90;;;;;;5013029;28;20022;-71
2023/12/11 10:56:48;;;;;;;11.77;3.63;;;24.60;99.90;;;;;;5013780;28;20075;-71
2023/12/11 10:59:16;;;;;;;11.18;2.78;;;24.70;99.90;;;;;;5013866;28;20086;-72
2023/12/11 11:01:47;;;;;;;11.75;3.05;;;24.60;99.90;;;;;;5012519;28;20738;-68
2023/12/11 11:04:18;;;;;;;16.05;3.75;;;24.60;99.90;;;;;;5013969;28;20117;-69
2023/12/11 11:07:02;;;;;;;13.32;3.60;;;24.60;99.90;;;;;;5012810;28;20033;-70
2023/12/11 11:10:00;;;;;;;14.60;3.90;;;24.50;99.90;;;;;;5014594;28;20041;-68
2023/12/11 11:12:42;;;;;;;11.20;3.25;;;24.40;99.90;;;;;;5013700;28;20159;-68
2023/12/11 11:15:10;;;;;;;9.00;2.63;;;24.50;99.90;;;;;;5015896;28;20030;-69
2023/12/11 11:18:10;;;;;;;10.18;3.25;;;24.50;99.90;;;;;;5016622;28;20463;-68
2023/12/11 11:20:39;;;;;;;12.35;3.65;;;24.50;99.90;;;;;;5018158;28;20408;-69
2023/12/11 11:23:15;;;;;;;11.35;3.45;;;24.50;99.90;;;;;;5015917;28;20084;-69
2023/12/11 11:25:56;;;;;;;12.85;3.13;;;24.50;99.90;;;;;;5017830;28;20527;-70
2023/12/11 11:28:44;;;;;;;15.48;3.70;;;24.40;99.90;;;;;;5019132;28;20109;-70
2023/12/11 11:31:12;;;;;;;13.40;3.47;;;24.40;99.90;;;;;;5018286;28;20116;-73
2023/12/11 11:33:50;;;;;;;13.88;4.82;;;24.30;99.90;;;;;;5021917;28;20507;-70
2023/12/11 11:36:19;;;;;;;9.10;4.57;;;24.20;99.90;;;;;;5023730;28;20021;-72
2023/12/11 11:39:01;;;;;;;10.50;3.65;;;24.20;99.90;;;;;;5024839;28;20025;-70
2023/12/11 11:41:32;;;;;;;8.45;2.85;;;24.20;99.90;;;;;;5022950;28;20103;-69
2023/12/11 11:44:06;;;;;;;11.63;2.80;;;24.20;99.90;;;;;;5023561;28;20044;-72
2023/12/11 11:46:53;;;;;;;9.35;2.90;;;24.20;99.90;;;;;;5039657;28;20475;-71
2023/12/11 11:49:34;;;;;;;11.95;3.10;;;24.10;99.90;;;;;;5024376;28;20116;-71
2023/12/11 11:52:11;;;;;;;8.52;3.10;;;24.00;99.90;;;;;;5024849;28;20056;-70
2023/12/11 11:54:39;;;;;;;11.55;3.42;;;23.90;99.90;;;;;;5023693;28;20025;-71
2023/12/11 11:57:07;;;;;;;12.88;3.17;;;23.90;99.90;;;;;;5024110;28;20036;-70
2023/12/11 11:59:44;;;;;;;12.15;5.20;;;23.80;99.90;;;;;;5024482;28;20033;-72
2023/12/11 12:02:12;;;;;;;11.02;3.08;;;23.80;99.90;;;;;;5024457;28;20033;-70
2023/12/11 12:04:39;;;;;;;10.70;3.13;;;23.70;99.90;;;;;;5024250;28;20041;-71
2023/12/11 12:07:07;;;;;;;10.48;3.35;;;23.70;99.90;;;;;;5024487;28;20037;-70
2023/12/11 12:09:34;;;;;;;11.60;2.92;;;23.80;99.90;;;;;;5025131;28;20025;-71
2023/12/11 12:12:04;;;;;;;7.95;3.30;;;23.80;99.90;;;;;;5024976;28;20048;-69
2023/12/11 12:14:31;;;;;;;12.75;3.22;;;23.80;99.90;;;;;;5024883;28;20034;-69
2023/12/11 12:16:59;;;;;;;14.27;2.78;;;23.90;99.90;;;;;;5024160;28;20038;-71
2023/12/11 12:19:35;;;;;;;9.05;2.35;;;23.90;99.90;;;;;;5023223;28;20408;-71
2023/12/11 12:22:03;;;;;;;13.88;3.28;;;24.00;99.90;;;;;;5023464;28;20623;-70
2023/12/11 12:24:31;;;;;;;7.63;2.55;;;24.00;99.90;;;;;;5024655;28;20777;-71
2023/12/11 12:27:08;;;;;;;14.18;3.17;;;23.90;99.90;;;;;;5023635;28;20033;-69
2023/12/11 12:29:36;;;;;;;15.15;3.22;;;24.10;99.90;;;;;;5022185;28;20144;-72
2023/12/11 12:32:04;;;;;;;11.38;3.03;;;24.00;99.90;;;;;;5022785;28;20795;-73
2023/12/11 12:34:33;;;;;;;12.70;2.75;;;24.10;99.90;;;;;;5024965;28;20517;-69
2023/12/11 12:37:03;;;;;;;8.13;2.78;;;24.10;99.90;;;;;;5025208;28;20514;-71
2023/12/11 12:39:30;;;;;;;11.38;3.15;;;24.10;99.90;;;;;;5023952;28;20056;-71
2023/12/11 12:41:58;;;;;;;14.00;3.40;;;24.00;99.90;;;;;;5024234;28;20025;-72
2023/12/11 12:44:25;;;;;;;14.57;3.25;;;24.10;99.90;;;;;;5022552;28;20052;-72
2023/12/11 12:46:52;;;;;;;13.55;3.35;;;24.00;99.90;;;;;;5021728;28;20037;-71
2023/12/11 12:49:20;;;;;;;9.85;3.00;;;24.00;99.90;;;;;;5020902;28;20099;-71